createdAt,value
2019-06-26T00:00:11.823Z,16.83
2019-06-26T00:01:17.887Z,16.63
2019-06-26T00:02:23.039Z,16.47
2019-06-26T00:03:28.674Z,16.93
2019-06-26T00:04:33.677Z,16.77
2019-06-26T00:05:39.395Z,17.00
2019-06-26T00:06:44.525Z,17.53
2019-06-26T00:07:50.117Z,16.07
2019-06-26T00:08:55.135Z,15.63
2019-06-26T00:10:00.770Z,15.20
2019-06-26T00:11:05.958Z,17.73
2019-06-26T00:12:11.518Z,17.73
2019-06-26T00:13:25.763Z,16.30
2019-06-26T00:14:23.884Z,16.90
2019-06-26T00:15:28.935Z,17.40
2019-06-26T00:16:34.564Z,17.20
2019-06-26T00:17:39.693Z,16.30
2019-06-26T00:18:45.300Z,15.63
2019-06-26T00:19:50.427Z,17.30
2019-06-26T00:20:56.021Z,16.30
2019-06-26T00:22:01.033Z,17.63
2019-06-26T00:23:06.709Z,16.80
2019-06-26T00:24:11.871Z,14.90
2019-06-26T00:25:17.619Z,17.43
2019-06-26T00:26:22.654Z,16.47
2019-06-26T00:27:28.274Z,16.43
2019-06-26T00:28:33.443Z,16.53
2019-06-26T00:29:39.099Z,17.13
2019-06-26T00:30:44.224Z,17.27
2019-06-26T00:31:50.044Z,16.73
2019-06-26T00:32:55.057Z,15.70
2019-06-26T00:34:00.701Z,16.40
2019-06-26T00:35:06.719Z,15.57
2019-06-26T00:36:12.343Z,16.13
2019-06-26T00:37:17.448Z,16.67
2019-06-26T00:38:23.180Z,17.30
2019-06-26T00:39:28.244Z,14.83
2019-06-26T00:40:33.879Z,18.83
2019-06-26T00:41:38.936Z,15.77
2019-06-26T00:42:44.585Z,16.00
2019-06-26T00:43:49.663Z,15.63
2019-06-26T00:44:55.439Z,16.13
2019-06-26T00:46:00.498Z,16.70
2019-06-26T00:47:06.110Z,16.70
2019-06-26T00:48:11.169Z,17.33
2019-06-26T00:49:16.837Z,16.43
2019-06-26T00:50:21.889Z,16.83
2019-06-26T00:51:27.552Z,17.67
2019-06-26T00:52:32.574Z,16.07
2019-06-26T00:53:38.297Z,16.63
2019-06-26T00:54:43.326Z,17.43
2019-06-26T00:55:48.968Z,18.00
2019-06-26T00:56:54.084Z,18.90
2019-06-26T00:57:59.708Z,18.33
2019-06-26T00:59:04.722Z,17.20
2019-06-26T01:00:11.342Z,18.00
2019-06-26T01:01:16.628Z,18.37
2019-06-26T01:02:41.802Z,16.67
2019-06-26T01:03:49.861Z,19.43
2019-06-26T01:04:59.755Z,21.13
2019-06-26T01:06:06.897Z,19.50
2019-06-26T01:07:12.789Z,21.10
2019-06-26T01:08:18.568Z,21.50
2019-06-26T01:09:25.450Z,21.07
2019-06-26T01:10:30.561Z,23.00
2019-06-26T01:11:36.386Z,21.63
2019-06-26T01:12:41.685Z,20.17
2019-06-26T01:13:57.751Z,21.33
2019-06-26T01:14:55.522Z,20.77
2019-06-26T01:16:01.238Z,20.43
2019-06-26T01:17:07.705Z,22.27
2019-06-26T01:18:13.467Z,19.83
2019-06-26T01:19:18.440Z,22.03
2019-06-26T01:20:25.151Z,20.77
2019-06-26T01:21:30.300Z,23.20
2019-06-26T01:22:35.962Z,23.07
2019-06-26T01:23:41.467Z,20.23
2019-06-26T01:24:47.133Z,21.90
2019-06-26T01:25:52.208Z,23.67
2019-06-26T01:26:58.004Z,22.63
2019-06-26T01:28:03.159Z,22.93
2019-06-26T01:29:09.298Z,23.10
2019-06-26T01:30:14.830Z,21.20
2019-06-26T01:31:20.417Z,25.73
2019-06-26T01:32:25.598Z,24.70
2019-06-26T01:33:31.184Z,24.93
2019-06-26T01:34:36.304Z,23.33
2019-06-26T01:35:42.241Z,22.33
2019-06-26T01:36:47.547Z,20.73
2019-06-26T01:37:53.192Z,21.17
2019-06-26T01:38:58.284Z,23.13
2019-06-26T01:40:04.003Z,24.90
2019-06-26T01:41:09.111Z,21.37
2019-06-26T01:42:14.858Z,22.60
2019-06-26T01:43:19.948Z,23.63
2019-06-26T01:44:25.726Z,19.43
2019-06-26T01:45:30.943Z,23.10
2019-06-26T01:46:37.077Z,18.83
2019-06-26T01:47:42.141Z,24.53
2019-06-26T01:48:47.983Z,23.90
2019-06-26T01:49:53.057Z,25.10
2019-06-26T01:50:58.648Z,23.77
2019-06-26T01:52:03.739Z,25.07
2019-06-26T01:53:09.323Z,25.47
2019-06-26T01:54:14.306Z,20.50
2019-06-26T01:55:19.968Z,25.03
2019-06-26T01:56:25.190Z,23.63
2019-06-26T01:57:31.091Z,23.27
2019-06-26T01:58:36.128Z,25.57
2019-06-26T01:59:41.809Z,23.83
2019-06-26T02:00:47.058Z,20.10
2019-06-26T02:01:52.693Z,21.27
2019-06-26T02:02:57.935Z,18.90
2019-06-26T02:04:03.582Z,19.27
2019-06-26T02:05:08.965Z,22.10
2019-06-26T02:06:14.591Z,24.20
2019-06-26T02:07:19.635Z,24.60
2019-06-26T02:08:25.239Z,25.37
2019-06-26T02:09:30.233Z,20.47
2019-06-26T02:10:35.802Z,25.40
2019-06-26T02:11:40.847Z,24.67
2019-06-26T02:12:46.473Z,22.53
2019-06-26T02:13:51.509Z,25.50
2019-06-26T02:14:57.185Z,23.43
2019-06-26T02:16:04.524Z,23.50
2019-06-26T02:17:10.092Z,22.53
2019-06-26T02:18:32.916Z,26.10
2019-06-26T02:19:37.880Z,27.73
2019-06-26T02:20:43.699Z,23.13
2019-06-26T02:21:48.760Z,19.73
2019-06-26T02:22:54.394Z,18.97
2019-06-26T02:23:59.456Z,23.33
2019-06-26T02:25:05.801Z,26.67
2019-06-26T02:26:10.945Z,25.40
2019-06-26T02:27:16.531Z,27.33
2019-06-26T02:28:21.668Z,25.87
2019-06-26T02:29:27.363Z,25.93
2019-06-26T02:30:32.456Z,22.90
2019-06-26T02:31:38.181Z,24.00
2019-06-26T02:32:43.189Z,27.47
2019-06-26T02:33:48.822Z,27.20
2019-06-26T02:34:53.892Z,25.10
2019-06-26T02:35:59.564Z,22.37
2019-06-26T02:37:04.614Z,28.63
2019-06-26T02:38:10.419Z,28.27
2019-06-26T02:39:15.429Z,27.17
2019-06-26T02:40:21.097Z,25.43
2019-06-26T02:41:26.097Z,25.73
2019-06-26T02:42:31.828Z,24.70
2019-06-26T02:43:37.212Z,20.33
2019-06-26T02:44:53.330Z,21.00
2019-06-26T02:45:49.604Z,25.40
2019-06-26T02:46:55.222Z,22.20
2019-06-26T02:48:00.365Z,21.43
2019-06-26T02:49:06.128Z,23.93
2019-06-26T02:50:12.449Z,23.40
2019-06-26T02:51:18.188Z,21.23
2019-06-26T02:52:23.177Z,19.87
2019-06-26T02:53:28.820Z,25.90
2019-06-26T02:54:34.033Z,23.13
2019-06-26T02:55:39.657Z,24.20
2019-06-26T02:56:44.685Z,28.97
2019-06-26T02:57:50.417Z,24.37
2019-06-26T02:58:55.491Z,27.10
2019-06-26T03:00:01.095Z,22.30
2019-06-26T03:01:06.392Z,24.80
2019-06-26T03:02:12.023Z,29.53
2019-06-26T03:03:17.155Z,21.83
2019-06-26T03:04:22.742Z,23.63
2019-06-26T03:05:28.033Z,25.07
2019-06-26T03:06:33.641Z,27.77
2019-06-26T03:07:38.815Z,29.90
2019-06-26T03:08:44.418Z,26.77
2019-06-26T03:09:49.552Z,32.50
2019-06-26T03:10:55.115Z,25.10
2019-06-26T03:12:01.220Z,27.57
2019-06-26T03:13:06.881Z,27.17
2019-06-26T03:14:11.950Z,29.03
2019-06-26T03:15:17.568Z,28.33
2019-06-26T03:16:22.638Z,28.47
2019-06-26T03:17:28.742Z,28.20
2019-06-26T03:18:33.774Z,31.10
2019-06-26T03:19:39.409Z,29.90
2019-06-26T03:20:47.954Z,29.47
2019-06-26T03:21:53.596Z,32.13
2019-06-26T03:22:58.683Z,28.30
2019-06-26T03:24:04.509Z,30.67
2019-06-26T03:25:09.608Z,28.97
2019-06-26T03:26:15.227Z,35.73
2019-06-26T03:27:20.317Z,29.90
2019-06-26T03:28:25.911Z,29.03
2019-06-26T03:29:30.976Z,29.97
2019-06-26T03:30:36.613Z,27.73
2019-06-26T03:31:41.682Z,24.50
2019-06-26T03:32:47.337Z,25.77
2019-06-26T03:33:52.347Z,29.67
2019-06-26T03:34:57.969Z,25.60
2019-06-26T03:36:03.129Z,29.07
2019-06-26T03:37:08.870Z,25.80
2019-06-26T03:38:15.056Z,28.13
2019-06-26T03:39:20.628Z,30.60
2019-06-26T03:40:25.695Z,32.60
2019-06-26T03:41:31.412Z,28.37
2019-06-26T03:42:36.511Z,26.33
2019-06-26T03:43:43.058Z,31.03
2019-06-26T03:44:48.188Z,30.07
2019-06-26T03:45:53.841Z,28.23
2019-06-26T03:46:58.989Z,34.20
2019-06-26T03:48:04.711Z,22.50
2019-06-26T03:49:10.826Z,30.03
2019-06-26T03:50:16.915Z,20.77
2019-06-26T03:51:22.222Z,20.20
2019-06-26T03:52:27.937Z,30.27
2019-06-26T03:53:32.928Z,28.13
2019-06-26T03:54:38.540Z,26.10
2019-06-26T03:55:43.565Z,24.47
2019-06-26T03:56:49.184Z,29.53
2019-06-26T03:57:54.220Z,30.67
2019-06-26T03:58:59.955Z,30.10
2019-06-26T04:00:06.540Z,28.90
2019-06-26T04:01:12.664Z,27.07
2019-06-26T04:02:17.866Z,31.53
2019-06-26T04:03:23.610Z,30.17
2019-06-26T04:04:28.849Z,28.63
2019-06-26T04:05:35.003Z,27.67
2019-06-26T04:06:40.090Z,30.87
2019-06-26T04:07:45.780Z,30.43
2019-06-26T04:08:50.818Z,31.27
2019-06-26T04:09:56.403Z,26.87
2019-06-26T04:11:01.450Z,27.20
2019-06-26T04:12:07.261Z,32.40
2019-06-26T04:13:12.439Z,29.60
2019-06-26T04:14:18.085Z,26.97
2019-06-26T04:15:24.175Z,31.33
2019-06-26T04:16:31.728Z,28.90
2019-06-26T04:17:36.747Z,31.17
2019-06-26T04:18:42.319Z,28.47
2019-06-26T04:19:47.372Z,36.47
2019-06-26T04:20:53.017Z,36.83
2019-06-26T04:21:58.056Z,34.53
2019-06-26T04:23:03.690Z,36.60
2019-06-26T04:24:08.718Z,28.93
2019-06-26T04:25:14.384Z,37.63
2019-06-26T04:26:19.435Z,24.37
2019-06-26T04:27:25.117Z,33.73
2019-06-26T04:28:30.191Z,26.73
2019-06-26T04:29:35.822Z,30.77
2019-06-26T04:30:40.840Z,30.67
2019-06-26T04:31:46.549Z,31.90
2019-06-26T04:32:51.550Z,36.60
2019-06-26T04:33:57.147Z,37.13
2019-06-26T04:35:02.149Z,26.30
2019-06-26T04:36:07.783Z,37.70
2019-06-26T04:37:12.873Z,36.23
2019-06-26T04:38:18.499Z,30.23
2019-06-26T04:39:23.538Z,31.57
2019-06-26T04:40:29.227Z,31.70
2019-06-26T04:41:35.692Z,32.77
2019-06-26T04:42:41.380Z,31.23
2019-06-26T04:43:46.414Z,33.97
2019-06-26T04:44:52.127Z,34.43
2019-06-26T04:45:58.523Z,30.07
2019-06-26T04:47:04.410Z,33.30
2019-06-26T04:48:09.494Z,36.30
2019-06-26T04:49:15.215Z,38.73
2019-06-26T04:50:20.747Z,34.13
2019-06-26T04:51:26.484Z,32.60
2019-06-26T04:52:31.544Z,39.13
2019-06-26T04:53:37.162Z,31.67
2019-06-26T04:54:42.242Z,36.03
2019-06-26T04:55:47.803Z,33.63
2019-06-26T04:56:52.849Z,33.30
2019-06-26T04:57:58.427Z,29.83
2019-06-26T04:59:03.415Z,38.57
2019-06-26T05:00:10.269Z,29.27
2019-06-26T05:01:15.331Z,43.80
2019-06-26T05:02:20.914Z,42.57
2019-06-26T05:03:25.950Z,33.87
2019-06-26T05:04:31.643Z,34.30
2019-06-26T05:05:39.899Z,34.43
2019-06-26T05:06:45.279Z,42.20
2019-06-26T05:07:52.954Z,34.67
2019-06-26T05:08:57.592Z,41.53
2019-06-26T05:10:02.687Z,32.47
2019-06-26T05:11:08.360Z,39.93
2019-06-26T05:12:13.356Z,43.37
2019-06-26T05:13:19.084Z,39.00
2019-06-26T05:14:24.134Z,31.37
2019-06-26T05:15:29.751Z,37.10
2019-06-26T05:16:34.771Z,35.10
2019-06-26T05:17:40.493Z,43.70
2019-06-26T05:18:45.554Z,45.00
2019-06-26T05:19:51.100Z,42.37
2019-06-26T05:20:56.217Z,38.90
2019-06-26T05:22:01.982Z,38.83
2019-06-26T05:23:06.964Z,43.00
2019-06-26T05:24:14.215Z,37.87
2019-06-26T05:25:19.272Z,38.93
2019-06-26T05:26:24.875Z,43.40
2019-06-26T05:27:29.787Z,46.97
2019-06-26T05:28:35.415Z,45.73
2019-06-26T05:29:40.432Z,40.57
2019-06-26T05:30:46.027Z,43.67
2019-06-26T05:31:51.043Z,45.93
2019-06-26T05:32:56.644Z,45.87
2019-06-26T05:34:01.715Z,42.30
2019-06-26T05:35:07.704Z,45.10
2019-06-26T05:36:12.857Z,49.57
2019-06-26T05:37:18.609Z,47.63
2019-06-26T05:38:23.782Z,49.37
2019-06-26T05:39:29.337Z,46.10
2019-06-26T05:40:34.392Z,47.00
2019-06-26T05:41:39.997Z,55.23
2019-06-26T05:42:45.215Z,59.80
2019-06-26T05:43:50.889Z,40.27
2019-06-26T05:44:55.905Z,56.77
2019-06-26T05:46:01.557Z,63.43
2019-06-26T05:47:07.311Z,59.50
2019-06-26T05:48:13.028Z,58.60
2019-06-26T05:49:21.136Z,55.53
2019-06-26T05:50:27.269Z,57.33
2019-06-26T05:51:33.445Z,65.10
2019-06-26T05:52:42.208Z,63.80
2019-06-26T05:53:45.741Z,54.33
2019-06-26T05:54:51.528Z,67.13
2019-06-26T05:55:56.569Z,55.40
2019-06-26T05:57:02.196Z,64.23
2019-06-26T05:58:07.172Z,64.87
2019-06-26T05:59:12.757Z,63.77
2019-06-26T06:00:17.928Z,61.83
2019-06-26T06:01:23.559Z,64.90
2019-06-26T06:02:28.563Z,68.80
2019-06-26T06:03:34.275Z,71.47
2019-06-26T06:04:39.287Z,62.87
2019-06-26T06:05:44.933Z,60.13
2019-06-26T06:06:52.520Z,62.20
2019-06-26T06:07:58.074Z,72.23
2019-06-26T06:09:03.183Z,66.10
2019-06-26T06:10:08.955Z,69.40
2019-06-26T06:11:14.333Z,65.67
2019-06-26T06:12:19.929Z,70.73
2019-06-26T06:13:25.022Z,76.23
2019-06-26T06:14:30.626Z,67.37
2019-06-26T06:15:35.761Z,68.90
2019-06-26T06:16:47.354Z,66.63
2019-06-26T06:17:48.289Z,64.43
2019-06-26T06:18:53.861Z,62.53
2019-06-26T06:19:59.835Z,65.30
2019-06-26T06:21:05.485Z,75.07
2019-06-26T06:22:10.549Z,60.33
2019-06-26T06:23:17.545Z,68.57
2019-06-26T06:24:22.845Z,70.83
2019-06-26T06:25:28.610Z,66.13
2019-06-26T06:26:33.777Z,64.87
2019-06-26T06:27:39.768Z,67.17
2019-06-26T06:28:44.846Z,68.83
2019-06-26T06:29:52.985Z,68.40
2019-06-26T06:30:58.017Z,65.40
2019-06-26T06:32:03.630Z,67.10
2019-06-26T06:33:08.726Z,70.00
2019-06-26T06:34:14.391Z,69.57
2019-06-26T06:35:19.526Z,65.00
2019-06-26T06:36:25.135Z,68.43
2019-06-26T06:37:30.427Z,66.20
2019-06-26T06:38:36.017Z,60.50
2019-06-26T06:39:41.132Z,69.87
2019-06-26T06:40:46.771Z,55.33
2019-06-26T06:41:51.769Z,63.63
2019-06-26T06:42:57.416Z,69.80
2019-06-26T06:44:03.602Z,67.27
2019-06-26T06:45:10.348Z,68.13
2019-06-26T06:46:15.647Z,74.37
2019-06-26T06:47:21.237Z,67.17
2019-06-26T06:48:26.315Z,63.63
2019-06-26T06:49:31.888Z,66.23
2019-06-26T06:50:36.956Z,64.40
2019-06-26T06:51:43.668Z,66.83
2019-06-26T06:52:48.690Z,67.23
2019-06-26T06:53:54.416Z,61.23
2019-06-26T06:54:59.419Z,63.07
2019-06-26T06:56:05.027Z,56.20
2019-06-26T06:57:10.060Z,58.63
2019-06-26T06:58:16.724Z,63.87
2019-06-26T06:59:21.824Z,51.67
2019-06-26T07:00:27.404Z,58.70
2019-06-26T07:01:32.515Z,60.80
2019-06-26T07:02:40.256Z,54.70
2019-06-26T07:03:45.359Z,60.80
2019-06-26T07:04:51.074Z,63.33
2019-06-26T07:05:56.052Z,53.90
2019-06-26T07:07:01.661Z,59.77
2019-06-26T07:08:06.672Z,63.57
2019-06-26T07:09:12.365Z,63.37
2019-06-26T07:10:17.980Z,63.87
2019-06-26T07:11:23.592Z,57.80
2019-06-26T07:12:29.268Z,54.37
2019-06-26T07:13:34.887Z,52.93
2019-06-26T07:14:39.896Z,55.70
2019-06-26T07:15:45.579Z,53.30
2019-06-26T07:16:50.599Z,53.13
2019-06-26T07:17:56.248Z,49.00
2019-06-26T07:19:01.282Z,55.43
2019-06-26T07:20:07.965Z,50.90
2019-06-26T07:21:13.058Z,53.20
2019-06-26T07:22:18.656Z,46.13
2019-06-26T07:23:23.734Z,50.07
2019-06-26T07:24:29.401Z,51.03
2019-06-26T07:25:34.377Z,49.38
2019-06-26T07:26:40.088Z,53.50
2019-06-26T07:27:45.133Z,49.27
2019-06-26T07:28:51.037Z,50.13
2019-06-26T07:29:58.162Z,48.60
2019-06-26T07:31:03.864Z,43.10
2019-06-26T07:32:08.990Z,49.23
2019-06-26T07:33:14.608Z,40.40
2019-06-26T07:34:19.636Z,42.60
2019-06-26T07:35:25.261Z,41.13
2019-06-26T07:36:30.228Z,43.85
2019-06-26T07:37:35.799Z,42.97
2019-06-26T07:38:41.114Z,43.43
2019-06-26T07:39:47.071Z,40.03
2019-06-26T07:40:52.058Z,44.93
2019-06-26T07:41:59.540Z,37.30
2019-06-26T07:43:04.575Z,41.85
2019-06-26T07:44:11.108Z,41.40
2019-06-26T07:45:17.281Z,42.33
2019-06-26T07:46:22.864Z,40.40
2019-06-26T07:47:41.772Z,39.80
2019-06-26T07:48:35.317Z,40.70
2019-06-26T07:49:40.379Z,41.23
2019-06-26T07:50:46.025Z,41.80
2019-06-26T07:51:51.212Z,37.53
2019-06-26T07:52:56.836Z,40.40
2019-06-26T07:54:01.944Z,41.65
2019-06-26T07:55:11.593Z,41.95
2019-06-26T07:56:14.801Z,46.77
2019-06-26T07:57:20.476Z,45.43
2019-06-26T07:58:25.471Z,43.45
2019-06-26T07:59:31.061Z,37.45
2019-06-26T08:00:36.084Z,40.08
2019-06-26T08:01:44.145Z,34.75
2019-06-26T08:02:49.302Z,38.15
2019-06-26T08:03:54.944Z,36.33
2019-06-26T08:04:59.914Z,33.25
2019-06-26T08:06:05.717Z,39.70
2019-06-26T08:07:11.844Z,36.85
2019-06-26T08:08:17.638Z,36.65
2019-06-26T08:09:22.691Z,33.95
2019-06-26T08:10:28.436Z,33.85
2019-06-26T08:11:33.497Z,38.30
2019-06-26T08:12:39.173Z,36.68
2019-06-26T08:13:44.292Z,34.48
2019-06-26T08:14:49.861Z,37.75
2019-06-26T08:15:54.971Z,43.05
2019-06-26T08:17:00.613Z,45.23
2019-06-26T08:18:05.740Z,32.55
2019-06-26T08:19:11.666Z,38.90
2019-06-26T08:20:17.364Z,38.80
2019-06-26T08:21:23.067Z,38.07
2019-06-26T08:22:28.166Z,36.75
2019-06-26T08:23:33.871Z,36.73
2019-06-26T08:24:38.988Z,41.20
2019-06-26T08:25:44.742Z,39.65
2019-06-26T08:26:49.793Z,36.53
2019-06-26T08:27:55.695Z,39.58
2019-06-26T08:29:00.712Z,35.63
2019-06-26T08:30:06.878Z,31.75
2019-06-26T08:31:11.890Z,33.73
2019-06-26T08:32:17.472Z,37.08
2019-06-26T08:33:22.487Z,36.68
2019-06-26T08:34:30.454Z,32.95
2019-06-26T08:35:35.545Z,36.73
2019-06-26T08:36:41.204Z,36.50
2019-06-26T08:37:46.383Z,36.38
2019-06-26T08:38:52.023Z,38.05
2019-06-26T08:39:57.122Z,40.67
2019-06-26T08:41:02.691Z,31.15
2019-06-26T08:42:07.956Z,35.68
2019-06-26T08:43:13.619Z,35.45
2019-06-26T08:44:18.823Z,39.70
2019-06-26T08:45:24.428Z,41.48
2019-06-26T08:46:29.561Z,39.15
2019-06-26T08:47:35.384Z,30.23
2019-06-26T08:48:40.943Z,39.00
2019-06-26T08:49:47.037Z,40.05
2019-06-26T08:50:52.353Z,38.13
2019-06-26T08:51:58.220Z,37.85
2019-06-26T08:53:03.210Z,39.67
2019-06-26T08:54:10.154Z,36.70
2019-06-26T08:55:15.447Z,38.25
2019-06-26T08:56:22.099Z,39.18
2019-06-26T08:57:27.904Z,39.73
2019-06-26T08:58:33.511Z,41.90
2019-06-26T08:59:38.674Z,37.05
2019-06-26T09:00:44.500Z,36.30
2019-06-26T09:01:50.220Z,38.58
2019-06-26T09:02:56.928Z,36.10
2019-06-26T09:04:03.017Z,40.00
2019-06-26T09:05:09.118Z,40.98
2019-06-26T09:06:14.275Z,35.48
2019-06-26T09:07:20.935Z,44.45
2019-06-26T09:08:26.107Z,45.15
2019-06-26T09:09:31.848Z,45.03
2019-06-26T09:10:36.998Z,49.03
2019-06-26T09:11:42.647Z,44.63
2019-06-26T09:12:47.885Z,53.05
2019-06-26T09:13:53.518Z,38.20
2019-06-26T09:14:58.585Z,44.48
2019-06-26T09:16:04.261Z,43.85
2019-06-26T09:17:09.346Z,47.40
2019-06-26T09:18:14.984Z,41.50
2019-06-26T09:19:20.056Z,41.77
2019-06-26T09:20:33.264Z,44.65
2019-06-26T09:21:38.298Z,43.48
2019-06-26T09:22:45.285Z,50.50
2019-06-26T09:23:50.301Z,43.78
2019-06-26T09:24:55.956Z,51.20
2019-06-26T09:26:00.973Z,47.48
2019-06-26T09:27:09.046Z,47.62
2019-06-26T09:28:14.106Z,45.63
2019-06-26T09:29:23.502Z,46.35
2019-06-26T09:30:26.484Z,51.08
2019-06-26T09:31:32.152Z,54.30
2019-06-26T09:32:37.146Z,43.10
2019-06-26T09:33:42.802Z,47.03
2019-06-26T09:34:48.137Z,51.80
2019-06-26T09:35:54.079Z,48.30
2019-06-26T09:36:59.127Z,51.50
2019-06-26T09:38:06.232Z,48.35
2019-06-26T09:39:11.314Z,52.35
2019-06-26T09:40:17.105Z,53.15
2019-06-26T09:41:22.115Z,46.70
2019-06-26T09:42:27.834Z,47.55
2019-06-26T09:43:33.023Z,49.15
2019-06-26T09:44:40.671Z,50.15
2019-06-26T09:45:45.922Z,47.58
2019-06-26T09:46:51.533Z,51.83
2019-06-26T09:47:56.678Z,48.58
2019-06-26T09:49:02.438Z,47.55
2019-06-26T09:50:07.889Z,52.78
2019-06-26T09:51:13.457Z,54.95
2019-06-26T09:52:18.607Z,58.08
2019-06-26T09:53:24.312Z,51.02
2019-06-26T09:54:29.375Z,52.98
2019-06-26T09:55:35.011Z,55.70
2019-06-26T09:56:40.045Z,60.30
2019-06-26T09:57:45.717Z,48.68
2019-06-26T09:58:50.745Z,57.50
2019-06-26T09:59:56.444Z,53.85
2019-06-26T10:01:01.519Z,66.72
2019-06-26T10:02:07.265Z,61.95
2019-06-26T10:03:12.277Z,56.77
2019-06-26T10:04:18.003Z,53.40
2019-06-26T10:05:23.358Z,54.00
2019-06-26T10:06:29.000Z,57.43
2019-06-26T10:07:34.036Z,59.30
2019-06-26T10:08:39.757Z,51.58
2019-06-26T10:09:44.913Z,60.58
2019-06-26T10:10:50.536Z,55.98
2019-06-26T10:11:55.624Z,60.60
2019-06-26T10:13:01.272Z,56.42
2019-06-26T10:14:06.659Z,51.65
2019-06-26T10:15:13.289Z,56.48
2019-06-26T10:16:18.498Z,54.23
2019-06-26T10:17:24.199Z,54.98
2019-06-26T10:18:29.317Z,59.23
2019-06-26T10:19:35.171Z,63.42
2019-06-26T10:20:40.219Z,61.88
2019-06-26T10:21:45.861Z,60.98
2019-06-26T10:22:50.963Z,57.30
2019-06-26T10:23:56.580Z,63.20
2019-06-26T10:25:01.851Z,53.85
2019-06-26T10:26:07.390Z,54.20
2019-06-26T10:27:12.493Z,48.98
2019-06-26T10:28:18.048Z,53.68
2019-06-26T10:29:23.076Z,50.40
2019-06-26T10:30:28.721Z,60.05
2019-06-26T10:31:34.026Z,59.05
2019-06-26T10:32:39.716Z,65.00
2019-06-26T10:33:44.723Z,63.02
2019-06-26T10:34:50.347Z,62.48
2019-06-26T10:35:55.508Z,59.75
2019-06-26T10:37:01.134Z,63.13
2019-06-26T10:38:06.206Z,63.02
2019-06-26T10:39:11.810Z,74.15
2019-06-26T10:40:17.501Z,74.53
2019-06-26T10:41:23.156Z,62.98
2019-06-26T10:42:29.256Z,68.45
2019-06-26T10:43:37.864Z,68.42
2019-06-26T10:44:42.861Z,67.53
2019-06-26T10:45:48.764Z,61.33
2019-06-26T10:46:53.990Z,66.85
2019-06-26T10:47:59.644Z,65.00
2019-06-26T10:49:04.807Z,61.15
2019-06-26T10:50:10.662Z,61.73
2019-06-26T10:51:15.867Z,66.10
2019-06-26T10:52:21.454Z,62.50
2019-06-26T10:53:26.494Z,56.73
2019-06-26T10:54:35.112Z,52.33
2019-06-26T10:55:40.339Z,49.45
2019-06-26T10:56:45.911Z,48.95
2019-06-26T10:57:51.003Z,51.05
2019-06-26T10:58:56.666Z,51.05
2019-06-26T11:00:01.678Z,44.42
2019-06-26T11:01:08.702Z,45.78
2019-06-26T11:02:17.011Z,41.53
2019-06-26T11:03:22.888Z,42.50
2019-06-26T11:04:30.375Z,43.00
2019-06-26T11:05:36.099Z,48.28
2019-06-26T11:06:41.126Z,45.85
2019-06-26T11:07:46.763Z,45.28
2019-06-26T11:08:51.789Z,49.73
2019-06-26T11:09:57.707Z,50.23
2019-06-26T11:11:03.093Z,42.80
2019-06-26T11:12:09.848Z,39.80
2019-06-26T11:13:14.830Z,42.08
2019-06-26T11:14:25.183Z,59.25
2019-06-26T11:15:30.219Z,54.67
2019-06-26T11:16:36.136Z,51.28
2019-06-26T11:17:41.221Z,51.70
2019-06-26T11:18:46.958Z,46.60
2019-06-26T11:19:55.427Z,52.43
2019-06-26T11:20:59.710Z,48.65
2019-06-26T11:22:04.957Z,47.03
2019-06-26T11:23:10.650Z,42.48
2019-06-26T11:24:15.680Z,41.75
2019-06-26T11:25:22.309Z,43.05
2019-06-26T11:26:27.337Z,42.55
2019-06-26T11:27:33.009Z,44.38
2019-06-26T11:28:38.502Z,38.63
2019-06-26T11:29:44.118Z,43.15
2019-06-26T11:30:51.263Z,39.27
2019-06-26T11:31:56.937Z,40.43
2019-06-26T11:33:03.183Z,45.85
2019-06-26T11:34:08.815Z,41.25
2019-06-26T11:35:15.884Z,42.90
2019-06-26T11:36:21.555Z,44.98
2019-06-26T11:37:26.596Z,45.12
2019-06-26T11:38:32.157Z,46.15
2019-06-26T11:39:37.204Z,43.87
2019-06-26T11:40:42.911Z,51.00
2019-06-26T11:41:48.108Z,45.30
2019-06-26T11:42:53.764Z,51.40
2019-06-26T11:43:58.781Z,41.08
2019-06-26T11:45:04.652Z,42.62
2019-06-26T11:46:09.749Z,55.85
2019-06-26T11:47:15.433Z,49.23
2019-06-26T11:48:20.513Z,49.58
2019-06-26T11:49:26.207Z,50.52
2019-06-26T11:50:31.562Z,52.98
2019-06-26T11:51:37.163Z,49.98
2019-06-26T11:52:42.287Z,55.90
2019-06-26T11:53:48.193Z,54.33
2019-06-26T11:55:02.631Z,55.50
2019-06-26T11:56:00.541Z,50.23
2019-06-26T11:57:05.635Z,50.75
2019-06-26T11:58:11.285Z,44.55
2019-06-26T11:59:16.358Z,46.20
2019-06-26T12:00:23.501Z,41.28
2019-06-26T12:01:28.632Z,47.45
2019-06-26T12:02:34.394Z,47.70
2019-06-26T12:03:39.876Z,55.28
2019-06-26T12:04:45.459Z,50.95
2019-06-26T12:05:50.655Z,44.98
2019-06-26T12:06:56.314Z,44.70
2019-06-26T12:08:01.362Z,46.20
2019-06-26T12:09:11.097Z,49.88
2019-06-26T12:10:16.588Z,47.03
2019-06-26T12:11:22.276Z,39.23
2019-06-26T12:12:27.390Z,42.70
2019-06-26T12:13:33.580Z,41.25
2019-06-26T12:14:38.842Z,40.25
2019-06-26T12:15:44.502Z,41.58
2019-06-26T12:16:49.691Z,38.42
2019-06-26T12:17:55.347Z,42.38
2019-06-26T12:19:00.370Z,43.83
2019-06-26T12:20:17.807Z,39.88
2019-06-26T12:21:13.237Z,38.40
2019-06-26T12:22:18.848Z,35.13
2019-06-26T12:23:23.951Z,34.75
2019-06-26T12:24:29.491Z,31.62
2019-06-26T12:25:34.588Z,34.95
2019-06-26T12:26:40.270Z,32.85
2019-06-26T12:27:45.515Z,31.70
2019-06-26T12:28:51.393Z,30.17
2019-06-26T12:29:56.788Z,33.33
2019-06-26T12:31:02.592Z,33.55
2019-06-26T12:32:07.930Z,30.85
2019-06-26T12:33:13.761Z,35.17
2019-06-26T12:34:18.873Z,28.65
2019-06-26T12:35:24.525Z,29.50
2019-06-26T12:36:29.701Z,29.82
2019-06-26T12:37:38.075Z,29.63
2019-06-26T12:38:42.247Z,31.57
2019-06-26T12:39:50.466Z,31.10
2019-06-26T12:40:55.581Z,33.10
2019-06-26T12:42:01.295Z,28.92
2019-06-26T12:43:06.425Z,28.32
2019-06-26T12:44:12.119Z,29.00
2019-06-26T12:45:17.875Z,25.97
2019-06-26T12:46:23.796Z,26.07
2019-06-26T12:47:28.910Z,27.45
2019-06-26T12:48:34.494Z,24.70
2019-06-26T12:49:39.635Z,24.90
2019-06-26T12:50:45.271Z,23.10
2019-06-26T12:51:50.426Z,22.15
2019-06-26T12:52:57.116Z,21.70
2019-06-26T12:54:02.140Z,20.32
2019-06-26T12:55:07.731Z,25.62
2019-06-26T12:56:12.957Z,21.73
2019-06-26T12:57:18.714Z,20.02
2019-06-26T12:58:24.869Z,21.23
2019-06-26T12:59:30.543Z,22.27
2019-06-26T13:00:35.772Z,20.57
2019-06-26T13:01:43.887Z,21.05
2019-06-26T13:02:48.716Z,19.57
2019-06-26T13:03:54.688Z,26.55
2019-06-26T13:05:01.264Z,45.00
2019-06-26T13:06:08.592Z,28.70
2019-06-26T13:07:23.239Z,21.68
2019-06-26T13:08:28.958Z,31.27
2019-06-26T13:09:33.963Z,23.15
2019-06-26T13:10:49.581Z,23.98
2019-06-26T13:11:46.402Z,20.50
2019-06-26T13:12:52.191Z,28.50
2019-06-26T13:14:02.459Z,16.97
2019-06-26T13:15:04.532Z,25.40
2019-06-26T13:16:09.954Z,19.95
2019-06-26T13:17:15.861Z,20.00
2019-06-26T13:18:20.923Z,17.07
2019-06-26T13:19:26.707Z,18.48
2019-06-26T13:20:31.767Z,27.93
2019-06-26T13:21:37.397Z,22.10
2019-06-26T13:22:42.463Z,14.68
2019-06-26T13:23:48.083Z,16.87
2019-06-26T13:24:53.550Z,16.42
2019-06-26T13:25:59.210Z,15.95
2019-06-26T13:27:04.322Z,13.93
2019-06-26T13:28:10.198Z,17.27
2019-06-26T13:29:18.024Z,14.63
2019-06-26T13:30:30.521Z,14.83
2019-06-26T13:31:35.646Z,12.78
2019-06-26T13:32:41.388Z,12.50
2019-06-26T13:33:46.439Z,12.68
2019-06-26T13:34:52.149Z,12.43
2019-06-26T13:35:57.317Z,12.07
2019-06-26T13:37:02.932Z,13.03
2019-06-26T13:38:07.970Z,14.07
2019-06-26T13:39:17.459Z,13.78
2019-06-26T13:40:22.715Z,13.40
2019-06-26T13:41:28.736Z,15.98
2019-06-26T13:42:33.779Z,11.55
2019-06-26T13:43:39.864Z,11.38
2019-06-26T13:44:44.949Z,11.95
2019-06-26T13:45:50.578Z,14.83
2019-06-26T13:46:57.299Z,11.57
2019-06-26T13:48:04.175Z,15.58
2019-06-26T13:49:09.677Z,11.97
2019-06-26T13:50:15.634Z,11.80
2019-06-26T13:51:21.645Z,11.53
2019-06-26T13:52:27.583Z,10.60
2019-06-26T13:53:32.726Z,12.10
2019-06-26T13:54:38.501Z,12.47
2019-06-26T13:55:44.099Z,12.00
2019-06-26T13:56:49.938Z,11.20
2019-06-26T13:57:55.765Z,11.80
2019-06-26T13:59:01.516Z,10.63
2019-06-26T14:00:07.844Z,10.58
2019-06-26T14:01:14.943Z,10.72
2019-06-26T14:02:20.104Z,10.50
2019-06-26T14:03:25.801Z,13.03
2019-06-26T14:04:30.860Z,10.38
2019-06-26T14:05:36.399Z,10.32